sensor_id;sensor_type;location;lat;lon;timestamp;pressure;altitude;pressure_sealevel;temperature;humidity
60089;BME280;45961;53.574;55.878;2023-02-04T00:00:28;100765.03;;;-17.64;69.79
60089;BME280;45961;53.574;55.878;2023-02-04T00:01:30;100777.44;;;-17.57;69.70
60089;BME280;45961;53.574;55.878;2023-02-04T00:02:31;100749.38;;;-17.70;69.80
60089;BME280;45961;53.574;55.878;2023-02-04T00:03:32;100766.56;;;-17.52;69.77
60089;BME280;45961;53.574;55.878;2023-02-04T00:04:33;100756.28;;;-17.55;69.88
60089;BME280;45961;53.574;55.878;2023-02-04T00:05:34;100761.94;;;-17.56;69.79
60089;BME280;45961;53.574;55.878;2023-02-04T00:06:35;100762.41;;;-17.58;69.32
60089;BME280;45961;53.574;55.878;2023-02-04T00:07:36;100766.47;;;-17.59;69.37
60089;BME280;45961;53.574;55.878;2023-02-04T00:08:37;100768.25;;;-17.58;69.25
60089;BME280;45961;53.574;55.878;2023-02-04T00:09:38;100761.34;;;-17.60;69.30
60089;BME280;45961;53.574;55.878;2023-02-04T00:10:39;100765.78;;;-17.58;69.12
60089;BME280;45961;53.574;55.878;2023-02-04T00:11:40;100761.72;;;-17.57;69.24
60089;BME280;45961;53.574;55.878;2023-02-04T00:12:41;100757.34;;;-17.53;69.42
60089;BME280;45961;53.574;55.878;2023-02-04T00:13:41;100755.56;;;-17.54;69.41
60089;BME280;45961;53.574;55.878;2023-02-04T00:14:42;100752.88;;;-17.42;69.47
60089;BME280;45961;53.574;55.878;2023-02-04T00:15:43;100754.06;;;-17.46;69.58
60089;BME280;45961;53.574;55.878;2023-02-04T00:16:44;100750.72;;;-17.47;69.56
60089;BME280;45961;53.574;55.878;2023-02-04T00:17:45;100755.78;;;-17.52;69.47
60089;BME280;45961;53.574;55.878;2023-02-04T00:18:46;100752.63;;;-17.51;69.44
60089;BME280;45961;53.574;55.878;2023-02-04T00:19:47;100750.72;;;-17.47;69.47
60089;BME280;45961;53.574;55.878;2023-02-04T00:20:48;100741.22;;;-17.44;69.76
60089;BME280;45961;53.574;55.878;2023-02-04T00:21:49;100748.34;;;-17.39;70.20
60089;BME280;45961;53.574;55.878;2023-02-04T00:22:50;100741.59;;;-17.40;70.18
60089;BME280;45961;53.574;55.878;2023-02-04T00:23:51;100745.84;;;-17.39;70.06
60089;BME280;45961;53.574;55.878;2023-02-04T00:24:52;100751.78;;;-17.45;69.81
60089;BME280;45961;53.574;55.878;2023-02-04T00:25:53;100746.16;;;-17.44;69.97
60089;BME280;45961;53.574;55.878;2023-02-04T00:26:54;100746.75;;;-17.39;70.20
60089;BME280;45961;53.574;55.878;2023-02-04T00:27:55;100748.50;;;-17.38;69.84
60089;BME280;45961;53.574;55.878;2023-02-04T00:28:56;100746.84;;;-17.45;69.94
60089;BME280;45961;53.574;55.878;2023-02-04T00:29:57;100743.06;;;-17.35;69.90
60089;BME280;45961;53.574;55.878;2023-02-04T00:30:58;100737.81;;;-17.31;69.93
60089;BME280;45961;53.574;55.878;2023-02-04T00:31:59;100741.75;;;-17.26;70.25
60089;BME280;45961;53.574;55.878;2023-02-04T00:33:01;100743.59;;;-17.18;70.47
60089;BME280;45961;53.574;55.878;2023-02-04T00:34:02;100737.03;;;-17.17;70.18
60089;BME280;45961;53.574;55.878;2023-02-04T00:35:04;100741.81;;;-17.19;70.19
60089;BME280;45961;53.574;55.878;2023-02-04T00:36:05;100751.25;;;-17.29;70.19
60089;BME280;45961;53.574;55.878;2023-02-04T00:37:06;100745.50;;;-17.23;70.24
60089;BME280;45961;53.574;55.878;2023-02-04T00:38:07;100743.72;;;-17.24;70.27
60089;BME280;45961;53.574;55.878;2023-02-04T00:39:08;100738.56;;;-17.25;70.20
60089;BME280;45961;53.574;55.878;2023-02-04T00:40:09;100750.75;;;-17.27;70.31
60089;BME280;45961;53.574;55.878;2023-02-04T00:41:13;100744.97;;;-17.40;70.19
60089;BME280;45961;53.574;55.878;2023-02-04T00:42:14;100759.28;;;-17.37;70.41
60089;BME280;45961;53.574;55.878;2023-02-04T00:43:15;100757.34;;;-17.40;70.54
60089;BME280;45961;53.574;55.878;2023-02-04T00:44:16;100754.25;;;-17.32;70.67
60089;BME280;45961;53.574;55.878;2023-02-04T00:45:17;100758.47;;;-17.31;70.79
60089;BME280;45961;53.574;55.878;2023-02-04T00:46:18;100753.63;;;-17.36;70.20
60089;BME280;45961;53.574;55.878;2023-02-04T00:47:19;100762.38;;;-17.46;70.10
60089;BME280;45961;53.574;55.878;2023-02-04T00:48:20;100764.09;;;-17.64;70.01
60089;BME280;45961;53.574;55.878;2023-02-04T00:49:21;100764.16;;;-17.77;69.59
60089;BME280;45961;53.574;55.878;2023-02-04T00:50:22;100774.47;;;-17.87;69.61
60089;BME280;45961;53.574;55.878;2023-02-04T00:51:23;100779.13;;;-17.96;69.50
60089;BME280;45961;53.574;55.878;2023-02-04T00:52:24;100776.56;;;-18.03;69.38
60089;BME280;45961;53.574;55.878;2023-02-04T00:53:25;100778.34;;;-18.02;69.59
60089;BME280;45961;53.574;55.878;2023-02-04T00:54:26;100774.69;;;-17.98;69.50
60089;BME280;45961;53.574;55.878;2023-02-04T00:55:27;100775.56;;;-17.98;69.41
60089;BME280;45961;53.574;55.878;2023-02-04T00:56:28;100772.91;;;-17.99;69.82
60089;BME280;45961;53.574;55.878;2023-02-04T00:57:29;100778.72;;;-17.99;70.29
60089;BME280;45961;53.574;55.878;2023-02-04T00:58:30;100779.53;;;-17.92;70.19
60089;BME280;45961;53.574;55.878;2023-02-04T00:59:31;100770.13;;;-17.95;70.34
60089;BME280;45961;53.574;55.878;2023-02-04T01:00:32;100775.19;;;-17.88;70.29
60089;BME280;45961;53.574;55.878;2023-02-04T01:01:33;100769.72;;;-17.85;70.35
60089;BME280;45961;53.574;55.878;2023-02-04T01:02:34;100769.03;;;-17.84;70.85
60089;BME280;45961;53.574;55.878;2023-02-04T01:03:35;100770.59;;;-17.85;70.65
60089;BME280;45961;53.574;55.878;2023-02-04T01:04:36;100774.88;;;-17.84;70.65
60089;BME280;45961;53.574;55.878;2023-02-04T01:05:37;100762.41;;;-17.78;70.64
60089;BME280;45961;53.574;55.878;2023-02-04T01:06:38;100762.84;;;-17.68;71.01
60089;BME280;45961;53.574;55.878;2023-02-04T01:07:39;100758.56;;;-17.69;70.37
60089;BME280;45961;53.574;55.878;2023-02-04T01:08:40;100761.06;;;-17.69;70.41
60089;BME280;45961;53.574;55.878;2023-02-04T01:09:41;100757.91;;;-17.68;70.18
60089;BME280;45961;53.574;55.878;2023-02-04T01:10:42;100764.88;;;-17.78;69.86
60089;BME280;45961;53.574;55.878;2023-02-04T01:11:43;100757.16;;;-17.74;70.05
60089;BME280;45961;53.574;55.878;2023-02-04T01:12:44;100754.50;;;-17.76;69.82
60089;BME280;45961;53.574;55.878;2023-02-04T01:13:45;100766.00;;;-17.69;69.88
60089;BME280;45961;53.574;55.878;2023-02-04T01:14:46;100754.81;;;-17.73;69.81
60089;BME280;45961;53.574;55.878;2023-02-04T01:15:47;100765.09;;;-17.70;69.84
60089;BME280;45961;53.574;55.878;2023-02-04T01:16:48;100763.50;;;-17.76;69.62
60089;BME280;45961;53.574;55.878;2023-02-04T01:17:49;100763.59;;;-17.82;69.96
60089;BME280;45961;53.574;55.878;2023-02-04T01:18:50;100763.41;;;-17.83;70.00
60089;BME280;45961;53.574;55.878;2023-02-04T01:19:52;100765.97;;;-17.89;70.06
60089;BME280;45961;53.574;55.878;2023-02-04T01:20:54;100769.66;;;-17.92;69.74
60089;BME280;45961;53.574;55.878;2023-02-04T01:21:55;100775.16;;;-18.01;70.01
60089;BME280;45961;53.574;55.878;2023-02-04T01:22:56;100775.97;;;-18.07;69.88
60089;BME280;45961;53.574;55.878;2023-02-04T01:23:57;100763.63;;;-18.07;69.98
60089;BME280;45961;53.574;55.878;2023-02-04T01:24:58;100771.50;;;-18.10;69.70
60089;BME280;45961;53.574;55.878;2023-02-04T01:26:16;100768.97;;;-18.04;69.65
60089;BME280;45961;53.574;55.878;2023-02-04T01:27:17;100771.91;;;-18.07;69.86
60089;BME280;45961;53.574;55.878;2023-02-04T01:28:18;100763.69;;;-18.13;69.58
60089;BME280;45961;53.574;55.878;2023-02-04T01:29:19;100774.09;;;-18.03;69.73
60089;BME280;45961;53.574;55.878;2023-02-04T01:30:20;100760.16;;;-18.15;69.75
60089;BME280;45961;53.574;55.878;2023-02-04T01:31:21;100767.47;;;-18.22;69.29
60089;BME280;45961;53.574;55.878;2023-02-04T01:32:23;100770.16;;;-18.21;69.26
60089;BME280;45961;53.574;55.878;2023-02-04T01:33:24;100778.34;;;-18.27;69.48
60089;BME280;45961;53.574;55.878;2023-02-04T01:34:25;100774.47;;;-18.38;69.44
60089;BME280;45961;53.574;55.878;2023-02-04T01:35:26;100773.47;;;-18.33;69.04
60089;BME280;45961;53.574;55.878;2023-02-04T01:36:27;100774.47;;;-18.38;69.15
60089;BME280;45961;53.574;55.878;2023-02-04T01:37:28;100778.53;;;-18.38;69.08
60089;BME280;45961;53.574;55.878;2023-02-04T01:38:29;100779.41;;;-18.38;69.32
60089;BME280;45961;53.574;55.878;2023-02-04T01:39:30;100775.34;;;-18.37;69.39
60089;BME280;45961;53.574;55.878;2023-02-04T01:40:31;100776.25;;;-18.37;69.53
60089;BME280;45961;53.574;55.878;2023-02-04T01:41:32;100770.34;;;-18.32;69.56
60089;BME280;45961;53.574;55.878;2023-02-04T01:42:33;100767.34;;;-18.29;69.73
60089;BME280;45961;53.574;55.878;2023-02-04T01:43:35;100765.28;;;-18.26;69.75
60089;BME280;45961;53.574;55.878;2023-02-04T01:44:36;100768.56;;;-18.20;69.93
60089;BME280;45961;53.574;55.878;2023-02-04T01:45:37;100769.63;;;-18.18;70.13
60089;BME280;45961;53.574;55.878;2023-02-04T01:46:39;100774.88;;;-18.22;70.14
60089;BME280;45961;53.574;55.878;2023-02-04T01:47:40;100777.66;;;-18.26;69.72
60089;BME280;45961;53.574;55.878;2023-02-04T01:48:41;100770.81;;;-18.22;69.99
60089;BME280;45961;53.574;55.878;2023-02-04T01:49:50;100779.34;;;-18.32;69.97
60089;BME280;45961;53.574;55.878;2023-02-04T01:50:59;100767.06;;;-18.25;69.88
60089;BME280;45961;53.574;55.878;2023-02-04T01:52:02;100769.94;;;-18.09;70.03
60089;BME280;45961;53.574;55.878;2023-02-04T01:53:04;100779.53;;;-18.18;70.08
60089;BME280;45961;53.574;55.878;2023-02-04T01:54:09;100772.31;;;-18.16;69.94
60089;BME280;45961;53.574;55.878;2023-02-04T01:55:14;100748.88;;;-18.38;69.76
60089;BME280;45961;53.574;55.878;2023-02-04T01:56:18;100772.13;;;-18.18;70.08
60089;BME280;45961;53.574;55.878;2023-02-04T01:57:19;100780.69;;;-18.22;70.48
60089;BME280;45961;53.574;55.878;2023-02-04T01:58:20;100775.09;;;-18.21;70.19
60089;BME280;45961;53.574;55.878;2023-02-04T01:59:22;100771.13;;;-18.26;70.14
60089;BME280;45961;53.574;55.878;2023-02-04T02:00:32;100787.03;;;-18.36;69.68
60089;BME280;45961;53.574;55.878;2023-02-04T02:02:41;100777.44;;;-18.40;70.08
60089;BME280;45961;53.574;55.878;2023-02-04T02:03:42;100777.75;;;-18.32;70.16
60089;BME280;45961;53.574;55.878;2023-02-04T02:04:43;100778.53;;;-18.38;69.80
60089;BME280;45961;53.574;55.878;2023-02-04T02:05:52;100777.44;;;-18.40;69.58
60089;BME280;45961;53.574;55.878;2023-02-04T02:06:56;100769.94;;;-18.48;69.74
60089;BME280;45961;53.574;55.878;2023-02-04T02:08:00;100772.09;;;-18.56;69.89
60089;BME280;45961;53.574;55.878;2023-02-04T02:09:03;100777.75;;;-18.45;69.96
60089;BME280;45961;53.574;55.878;2023-02-04T02:10:06;100769.81;;;-18.55;70.08
60089;BME280;45961;53.574;55.878;2023-02-04T02:11:09;100778.81;;;-18.55;69.89
60089;BME280;45961;53.574;55.878;2023-02-04T02:12:10;100786.09;;;-18.50;70.08
60089;BME280;45961;53.574;55.878;2023-02-04T02:13:14;100776.81;;;-18.45;70.31
60089;BME280;45961;53.574;55.878;2023-02-04T02:14:15;100779.09;;;-18.47;69.95
60089;BME280;45961;53.574;55.878;2023-02-04T02:15:17;100783.47;;;-18.51;69.78
60089;BME280;45961;53.574;55.878;2023-02-04T02:16:18;100780.56;;;-18.67;69.58
60089;BME280;45961;53.574;55.878;2023-02-04T02:17:20;100791.63;;;-18.71;69.46
60089;BME280;45961;53.574;55.878;2023-02-04T02:18:21;100783.84;;;-18.61;69.77
60089;BME280;45961;53.574;55.878;2023-02-04T02:19:25;100783.53;;;-18.70;69.36
60089;BME280;45961;53.574;55.878;2023-02-04T02:20:27;100785.91;;;-18.77;69.39
60089;BME280;45961;53.574;55.878;2023-02-04T02:21:54;100789.28;;;-18.76;69.58
60089;BME280;45961;53.574;55.878;2023-02-04T02:24:24;100792.41;;;-18.77;69.56
60089;BME280;45961;53.574;55.878;2023-02-04T02:25:27;100779.47;;;-18.82;69.75
60089;BME280;45961;53.574;55.878;2023-02-04T02:26:28;100785.22;;;-18.76;69.74
60089;BME280;45961;53.574;55.878;2023-02-04T02:27:29;100777.72;;;-18.70;69.84
60089;BME280;45961;53.574;55.878;2023-02-04T02:28:32;100787.84;;;-18.87;69.76
60089;BME280;45961;53.574;55.878;2023-02-04T02:29:34;100789.00;;;-18.90;69.82
60089;BME280;45961;53.574;55.878;2023-02-04T02:30:35;100790.41;;;-18.92;70.08
60089;BME280;45961;53.574;55.878;2023-02-04T02:31:36;100791.63;;;-18.83;69.83
60089;BME280;45961;53.574;55.878;2023-02-04T02:32:38;100788.28;;;-18.71;69.79
60089;BME280;45961;53.574;55.878;2023-02-04T02:33:38;100790.22;;;-18.81;70.06
60089;BME280;45961;53.574;55.878;2023-02-04T02:34:41;100793.78;;;-18.79;69.99
60089;BME280;45961;53.574;55.878;2023-02-04T02:35:44;100780.34;;;-18.81;69.96
60089;BME280;45961;53.574;55.878;2023-02-04T02:36:48;100789.31;;;-18.69;70.09
60089;BME280;45961;53.574;55.878;2023-02-04T02:37:48;100788.31;;;-18.89;70.14
60089;BME280;45961;53.574;55.878;2023-02-04T02:38:49;100792.31;;;-18.84;70.64
60089;BME280;45961;53.574;55.878;2023-02-04T02:39:50;100789.28;;;-18.76;70.46
60089;BME280;45961;53.574;55.878;2023-02-04T02:40:54;100786.69;;;-18.71;70.90
60089;BME280;45961;53.574;55.878;2023-02-04T02:41:57;100786.84;;;-18.69;70.92
60089;BME280;45961;53.574;55.878;2023-02-04T02:42:58;100784.38;;;-18.69;70.77
60089;BME280;45961;53.574;55.878;2023-02-04T02:44:00;100789.28;;;-18.76;70.71
60089;BME280;45961;53.574;55.878;2023-02-04T02:45:10;100808.63;;;-18.98;70.44
60089;BME280;45961;53.574;55.878;2023-02-04T02:46:12;100797.69;;;-19.00;70.71
60089;BME280;45961;53.574;55.878;2023-02-04T02:47:14;100798.47;;;-18.94;70.43
60089;BME280;45961;53.574;55.878;2023-02-04T02:48:16;100793.38;;;-18.82;70.71
60089;BME280;45961;53.574;55.878;2023-02-04T02:49:18;100803.75;;;-18.85;70.52
60089;BME280;45961;53.574;55.878;2023-02-04T02:50:24;100792.13;;;-19.04;70.72
60089;BME280;45961;53.574;55.878;2023-02-04T02:51:26;100803.50;;;-18.99;70.28
60089;BME280;45961;53.574;55.878;2023-02-04T02:52:27;100806.63;;;-19.13;70.36
60089;BME280;45961;53.574;55.878;2023-02-04T02:53:28;100807.19;;;-19.21;70.38
60089;BME280;45961;53.574;55.878;2023-02-04T02:54:29;100802.28;;;-19.08;70.57
60089;BME280;45961;53.574;55.878;2023-02-04T02:55:34;100800.75;;;-19.13;70.30
60089;BME280;45961;53.574;55.878;2023-02-04T02:56:37;100801.72;;;-19.19;70.28
60089;BME280;45961;53.574;55.878;2023-02-04T02:57:38;100813.25;;;-19.25;70.36
60089;BME280;45961;53.574;55.878;2023-02-04T02:58:39;100807.84;;;-19.22;70.32
60089;BME280;45961;53.574;55.878;2023-02-04T02:59:41;100803.13;;;-19.21;69.90
60089;BME280;45961;53.574;55.878;2023-02-04T03:00:42;100808.94;;;-19.20;70.03
60089;BME280;45961;53.574;55.878;2023-02-04T03:01:47;100817.66;;;-19.16;69.88
60089;BME280;45961;53.574;55.878;2023-02-04T03:03:56;100818.81;;;-19.20;69.91
60089;BME280;45961;53.574;55.878;2023-02-04T03:04:57;100823.78;;;-19.26;70.05
60089;BME280;45961;53.574;55.878;2023-02-04T03:06:13;100800.78;;;-19.32;70.06
60089;BME280;45961;53.574;55.878;2023-02-04T03:07:17;100818.38;;;-19.23;70.19
60089;BME280;45961;53.574;55.878;2023-02-04T03:08:19;100813.19;;;-19.19;70.07
60089;BME280;45961;53.574;55.878;2023-02-04T03:09:22;100815.84;;;-19.17;69.81
60089;BME280;45961;53.574;55.878;2023-02-04T03:10:25;100815.09;;;-19.11;70.04
60089;BME280;45961;53.574;55.878;2023-02-04T03:11:26;100813.50;;;-19.10;70.17
60089;BME280;45961;53.574;55.878;2023-02-04T03:12:29;100819.94;;;-19.05;70.13
60089;BME280;45961;53.574;55.878;2023-02-04T03:13:30;100814.22;;;-19.11;70.07
60089;BME280;45961;53.574;55.878;2023-02-04T03:14:34;100817.66;;;-19.16;70.08
60089;BME280;45961;53.574;55.878;2023-02-04T03:15:36;100815.78;;;-19.12;69.98
60089;BME280;45961;53.574;55.878;2023-02-04T03:16:37;100808.38;;;-19.12;70.03
60089;BME280;45961;53.574;55.878;2023-02-04T03:17:40;100808.81;;;-19.09;70.16
60089;BME280;45961;53.574;55.878;2023-02-04T03:19:02;100812.81;;;-19.09;70.32
60089;BME280;45961;53.574;55.878;2023-02-04T03:20:06;100811.47;;;-19.07;70.08
60089;BME280;45961;53.574;55.878;2023-02-04T03:21:08;100806.47;;;-19.20;70.48
60089;BME280;45961;53.574;55.878;2023-02-04T03:22:10;100797.69;;;-19.18;70.47
60089;BME280;45961;53.574;55.878;2023-02-04T03:23:12;100811.38;;;-19.02;70.88
60089;BME280;45961;53.574;55.878;2023-02-04T03:24:15;100805.69;;;-18.95;70.54
60089;BME280;45961;53.574;55.878;2023-02-04T03:25:16;100810.34;;;-18.91;70.57
60089;BME280;45961;53.574;55.878;2023-02-04T03:26:17;100796.00;;;-18.94;70.80
60089;BME280;45961;53.574;55.878;2023-02-04T03:27:19;100807.25;;;-18.96;70.78
60089;BME280;45961;53.574;55.878;2023-02-04T03:28:21;100797.72;;;-18.87;70.66
60089;BME280;45961;53.574;55.878;2023-02-04T03:29:22;100798.34;;;-18.70;70.83
60089;BME280;45961;53.574;55.878;2023-02-04T03:30:24;100793.59;;;-18.81;70.68
60089;BME280;45961;53.574;55.878;2023-02-04T03:31:26;100806.03;;;-18.74;70.77
60089;BME280;45961;53.574;55.878;2023-02-04T03:32:27;100799.94;;;-18.70;70.99
60089;BME280;45961;53.574;55.878;2023-02-04T03:33:27;100803.19;;;-18.64;71.02
60089;BME280;45961;53.574;55.878;2023-02-04T03:34:31;100801.19;;;-18.66;70.77
60089;BME280;45961;53.574;55.878;2023-02-04T03:35:31;100799.41;;;-18.67;70.75
60089;BME280;45961;53.574;55.878;2023-02-04T03:36:32;100803.19;;;-18.77;70.73
60089;BME280;45961;53.574;55.878;2023-02-04T03:37:33;100802.56;;;-18.81;70.43
60089;BME280;45961;53.574;55.878;2023-02-04T03:38:37;100801.56;;;-18.89;70.67
60089;BME280;45961;53.574;55.878;2023-02-04T03:39:38;100806.88;;;-18.86;70.57
60089;BME280;45961;53.574;55.878;2023-02-04T03:40:40;100813.41;;;-18.86;70.56
60089;BME280;45961;53.574;55.878;2023-02-04T03:41:41;100817.56;;;-18.92;70.73
60089;BME280;45961;53.574;55.878;2023-02-04T03:42:42;100813.69;;;-18.90;70.81
60089;BME280;45961;53.574;55.878;2023-02-04T03:43:42;100819.44;;;-18.84;70.73
60089;BME280;45961;53.574;55.878;2023-02-04T03:44:43;100813.53;;;-18.79;70.88
60089;BME280;45961;53.574;55.878;2023-02-04T03:45:44;100812.78;;;-18.73;71.13
60089;BME280;45961;53.574;55.878;2023-02-04T03:46:45;100811.25;;;-18.65;70.80
60089;BME280;45961;53.574;55.878;2023-02-04T03:47:46;100813.84;;;-18.58;70.93
60089;BME280;45961;53.574;55.878;2023-02-04T03:48:47;100818.28;;;-18.68;70.67
60089;BME280;45961;53.574;55.878;2023-02-04T03:49:48;100822.25;;;-18.76;70.70
60089;BME280;45961;53.574;55.878;2023-02-04T03:50:49;100819.53;;;-18.77;70.68
60089;BME280;45961;53.574;55.878;2023-02-04T03:51:50;100826.56;;;-18.80;70.68
60089;BME280;45961;53.574;55.878;2023-02-04T03:52:51;100822.81;;;-18.84;70.66
60089;BME280;45961;53.574;55.878;2023-02-04T03:53:53;100823.28;;;-18.86;70.49
60089;BME280;45961;53.574;55.878;2023-02-04T03:54:54;100827.59;;;-18.91;70.50
60089;BME280;45961;53.574;55.878;2023-02-04T03:55:55;100818.16;;;-18.88;70.39
60089;BME280;45961;53.574;55.878;2023-02-04T03:56:56;100811.53;;;-18.82;70.31
60089;BME280;45961;53.574;55.878;2023-02-04T03:57:59;100821.31;;;-18.89;70.31
60089;BME280;45961;53.574;55.878;2023-02-04T03:59:00;100820.53;;;-18.82;70.69
60089;BME280;45961;53.574;55.878;2023-02-04T04:00:01;100829.38;;;-18.90;70.40
60089;BME280;45961;53.574;55.878;2023-02-04T04:01:12;100826.53;;;-18.93;70.20
60089;BME280;45961;53.574;55.878;2023-02-04T04:02:23;100834.81;;;-18.92;70.49
60089;BME280;45961;53.574;55.878;2023-02-04T04:03:24;100830.41;;;-18.82;70.31
60089;BME280;45961;53.574;55.878;2023-02-04T04:04:25;100825.88;;;-18.79;70.56
60089;BME280;45961;53.574;55.878;2023-02-04T04:05:26;100827.19;;;-18.76;70.42
60089;BME280;45961;53.574;55.878;2023-02-04T04:06:28;100826.34;;;-18.69;70.39
60089;BME280;45961;53.574;55.878;2023-02-04T04:07:29;100822.72;;;-18.65;70.80
60089;BME280;45961;53.574;55.878;2023-02-04T04:08:30;100819.00;;;-18.56;70.70
60089;BME280;45961;53.574;55.878;2023-02-04T04:09:31;100823.84;;;-18.51;70.81
60089;BME280;45961;53.574;55.878;2023-02-04T04:10:32;100825.53;;;-18.57;70.80
60089;BME280;45961;53.574;55.878;2023-02-04T04:11:33;100825.03;;;-18.54;70.50
60089;BME280;45961;53.574;55.878;2023-02-04T04:12:33;100820.69;;;-18.50;70.93
60089;BME280;45961;53.574;55.878;2023-02-04T04:13:34;100819.59;;;-18.52;70.53
60089;BME280;45961;53.574;55.878;2023-02-04T04:14:35;100821.78;;;-18.48;70.74
60089;BME280;45961;53.574;55.878;2023-02-04T04:15:36;100815.38;;;-18.40;70.56
60089;BME280;45961;53.574;55.878;2023-02-04T04:16:37;100820.22;;;-18.34;70.70
60089;BME280;45961;53.574;55.878;2023-02-04T04:17:38;100811.81;;;-18.29;70.73
60089;BME280;45961;53.574;55.878;2023-02-04T04:18:39;100822.22;;;-18.32;70.63
60089;BME280;45961;53.574;55.878;2023-02-04T04:19:40;100823.56;;;-18.34;70.31
60089;BME280;45961;53.574;55.878;2023-02-04T04:20:41;100819.44;;;-18.28;70.54
60089;BME280;45961;53.574;55.878;2023-02-04T04:21:42;100821.63;;;-18.24;70.16
60089;BME280;45961;53.574;55.878;2023-02-04T04:22:43;100818.06;;;-18.26;70.22
60089;BME280;45961;53.574;55.878;2023-02-04T04:23:45;100814.69;;;-18.26;70.12
60089;BME280;45961;53.574;55.878;2023-02-04T04:24:46;100782.88;;;-18.43;70.17
60089;BME280;45961;53.574;55.878;2023-02-04T04:25:47;100819.16;;;-18.24;69.78
60089;BME280;45961;53.574;55.878;2023-02-04T04:26:48;100816.00;;;-18.23;70.02
60089;BME280;45961;53.574;55.878;2023-02-04T04:27:49;100827.25;;;-18.25;69.46
60089;BME280;45961;53.574;55.878;2023-02-04T04:28:50;100823.09;;;-18.31;69.63
60089;BME280;45961;53.574;55.878;2023-02-04T04:29:51;100815.56;;;-18.26;69.92
60089;BME280;45961;53.574;55.878;2023-02-04T04:30:51;100824.28;;;-18.35;69.72
60089;BME280;45961;53.574;55.878;2023-02-04T04:31:52;100807.69;;;-18.36;69.69
60089;BME280;45961;53.574;55.878;2023-02-04T04:32:53;100811.63;;;-18.31;69.83
60089;BME280;45961;53.574;55.878;2023-02-04T04:33:54;100812.50;;;-18.30;69.94
60089;BME280;45961;53.574;55.878;2023-02-04T04:34:55;100823.41;;;-18.23;70.04
60089;BME280;45961;53.574;55.878;2023-02-04T04:35:56;100823.81;;;-18.20;69.74
60089;BME280;45961;53.574;55.878;2023-02-04T04:36:58;100814.09;;;-18.18;70.06
60089;BME280;45961;53.574;55.878;2023-02-04T04:38:00;100836.28;;;-18.12;69.96
60089;BME280;45961;53.574;55.878;2023-02-04T04:39:01;100847.31;;;-18.16;70.07
60089;BME280;45961;53.574;55.878;2023-02-04T04:40:02;100829.44;;;-18.21;69.80
60089;BME280;45961;53.574;55.878;2023-02-04T04:41:06;100830.69;;;-18.17;70.03
60089;BME280;45961;53.574;55.878;2023-02-04T04:42:07;100819.44;;;-18.15;70.14
60089;BME280;45961;53.574;55.878;2023-02-04T04:43:08;100828.06;;;-18.06;70.27
60089;BME280;45961;53.574;55.878;2023-02-04T04:44:09;100829.81;;;-18.05;70.16
60089;BME280;45961;53.574;55.878;2023-02-04T04:45:10;100829.75;;;-17.99;69.91
60089;BME280;45961;53.574;55.878;2023-02-04T04:46:11;100831.63;;;-18.04;70.06
60089;BME280;45961;53.574;55.878;2023-02-04T04:47:12;100839.91;;;-18.03;69.83
60089;BME280;45961;53.574;55.878;2023-02-04T04:48:13;100836.16;;;-18.07;70.01
60089;BME280;45961;53.574;55.878;2023-02-04T04:49:14;100826.47;;;-18.05;69.84
60089;BME280;45961;53.574;55.878;2023-02-04T04:50:16;100833.00;;;-18.06;69.79
60089;BME280;45961;53.574;55.878;2023-02-04T04:51:17;100831.03;;;-17.96;69.87
60089;BME280;45961;53.574;55.878;2023-02-04T04:52:18;100828.25;;;-17.91;70.13
60089;BME280;45961;53.574;55.878;2023-02-04T04:53:19;100834.78;;;-17.79;70.04
60089;BME280;45961;53.574;55.878;2023-02-04T04:54:20;100836.75;;;-17.77;70.13
60089;BME280;45961;53.574;55.878;2023-02-04T04:55:20;100838.00;;;-17.73;70.12
60089;BME280;45961;53.574;55.878;2023-02-04T04:56:21;100842.19;;;-17.79;69.91
60089;BME280;45961;53.574;55.878;2023-02-04T04:57:22;100842.94;;;-17.73;69.90
60089;BME280;45961;53.574;55.878;2023-02-04T04:58:26;100843.34;;;-17.70;70.02
60089;BME280;45961;53.574;55.878;2023-02-04T04:59:27;100844.75;;;-17.72;69.80
60089;BME280;45961;53.574;55.878;2023-02-04T05:00:28;100839.69;;;-17.66;69.48
60089;BME280;45961;53.574;55.878;2023-02-04T05:01:29;100841.28;;;-17.67;69.43
60089;BME280;45961;53.574;55.878;2023-02-04T05:02:30;100838.22;;;-17.72;69.73
60089;BME280;45961;53.574;55.878;2023-02-04T05:03:31;100851.09;;;-17.74;69.44
60089;BME280;45961;53.574;55.878;2023-02-04T05:04:32;100836.38;;;-17.80;69.68
60089;BME280;45961;53.574;55.878;2023-02-04T05:05:33;100837.50;;;-17.71;69.56
60089;BME280;45961;53.574;55.878;2023-02-04T05:06:39;100844.75;;;-17.72;69.46
60089;BME280;45961;53.574;55.878;2023-02-04T05:07:40;100839.50;;;-17.81;69.12
60089;BME280;45961;53.574;55.878;2023-02-04T05:08:41;100845.38;;;-17.80;69.31
60089;BME280;45961;53.574;55.878;2023-02-04T05:09:42;100839.50;;;-17.68;69.28
60089;BME280;45961;53.574;55.878;2023-02-04T05:10:43;100844.31;;;-17.62;68.91
60089;BME280;45961;53.574;55.878;2023-02-04T05:11:43;100847.69;;;-17.62;68.86
60089;BME280;45961;53.574;55.878;2023-02-04T05:12:45;100839.56;;;-17.61;68.84
60089;BME280;45961;53.574;55.878;2023-02-04T05:13:46;100845.69;;;-17.64;68.40
60089;BME280;45961;53.574;55.878;2023-02-04T05:14:47;100847.22;;;-17.72;68.50
60089;BME280;45961;53.574;55.878;2023-02-04T05:15:47;100833.84;;;-17.67;68.42
60089;BME280;45961;53.574;55.878;2023-02-04T05:16:48;100845.91;;;-17.63;68.39
60089;BME280;45961;53.574;55.878;2023-02-04T05:17:49;100848.88;;;-17.65;68.12
60089;BME280;45961;53.574;55.878;2023-02-04T05:18:50;100829.50;;;-17.62;68.06